TAP1542 GVNP-LPPT
Flight info
| Callsign | TAP1542 |
|---|---|
| Flight time | N/A |
| Altitude | 35000 |
| Route | AMDER1N CVS UN873 IPERA N873 GDV N858 VASTO DCT BAROK DCT VATZI |
| Aircraft | A21N/M-SDE2E3FGHIRWXY/LB1 |
Departure
| Time | 2026-04-23 17:52 |
|---|---|
| Airport | Nelson Mandela International Airport (GVNP) |
Arrival
| Time | N/A |
|---|---|
| Airport | Lisbon Humberto Delgado Airport (LPPT) |
| Time | Latitude | Longitude | Altitude | Speed | Heading |
|---|---|---|---|---|---|
| 2026-04-23 17:48 | 14.93916 | -23.48552 | 333 ft | 17 kts | 202° |
| 2026-04-23 17:49 | 14.93782 | -23.48609 | 333 ft | 24 kts | 202° |
| 2026-04-23 17:49 | 14.93635 | -23.48669 | 333 ft | 22 kts | 202° |
| 2026-04-23 17:49 | 14.93492 | -23.48729 | 333 ft | 22 kts | 202° |
| 2026-04-23 17:49 | 14.93349 | -23.48788 | 333 ft | 22 kts | 201° |
| 2026-04-23 17:50 | 14.93261 | -23.48847 | 333 ft | 6 kts | 149° |
| 2026-04-23 17:50 | 14.93280 | -23.48819 | 333 ft | 0 kts | 24° |
| 2026-04-23 17:51 | 14.93823 | -23.48589 | 333 ft | 115 kts | 21° |
| 2026-04-23 17:52 | 14.94764 | -23.48177 | 392 ft | 172 kts | 25° |
| 2026-04-23 17:52 | 14.96820 | -23.47036 | 2183 ft | 170 kts | 24° |
| 2026-04-23 17:52 | 14.97944 | -23.46625 | 2946 ft | 180 kts | 20° |
| 2026-04-23 17:53 | 15.00474 | -23.45727 | 4010 ft | 208 kts | 21° |
| 2026-04-23 17:53 | 15.01849 | -23.45197 | 4331 ft | 225 kts | 22° |
| 2026-04-23 17:53 | 15.03366 | -23.44585 | 4694 ft | 244 kts | 23° |
| 2026-04-23 17:54 | 15.05002 | -23.43907 | 5145 ft | 261 kts | 22° |
| 2026-04-23 17:54 | 15.06705 | -23.43200 | 5863 ft | 266 kts | 23° |
| 2026-04-23 17:54 | 15.10145 | -23.41838 | 7349 ft | 272 kts | 18° |
| 2026-04-23 17:55 | 15.13875 | -23.40980 | 8743 ft | 280 kts | 11° |
| 2026-04-23 17:55 | 15.15797 | -23.40625 | 9424 ft | 283 kts | 11° |
| 2026-04-23 17:55 | 15.17745 | -23.40268 | 10060 ft | 287 kts | 11° |
| 2026-04-23 17:56 | 15.19713 | -23.39901 | 10535 ft | 297 kts | 11° |
| 2026-04-23 17:56 | 15.23987 | -23.39100 | 11104 ft | 329 kts | 11° |
| 2026-04-23 17:56 | 15.26274 | -23.38669 | 11381 ft | 344 kts | 11° |
| 2026-04-23 17:57 | 15.28682 | -23.38216 | 11652 ft | 359 kts | 11° |
| 2026-04-23 17:57 | 15.31184 | -23.37744 | 11916 ft | 374 kts | 11° |
| 2026-04-23 17:57 | 15.36450 | -23.36753 | 12879 ft | 390 kts | 11° |
| 2026-04-23 17:58 | 15.39106 | -23.36253 | 13586 ft | 391 kts | 11° |
| 2026-04-23 17:58 | 15.41780 | -23.35749 | 14260 ft | 393 kts | 11° |
| 2026-04-23 17:58 | 15.44441 | -23.35246 | 14920 ft | 395 kts | 11° |
| 2026-04-23 17:58 | 15.47176 | -23.34729 | 15598 ft | 398 kts | 11° |
| 2026-04-23 17:59 | 15.49887 | -23.34217 | 16263 ft | 400 kts | 11° |
| 2026-04-23 17:59 | 15.52598 | -23.33704 | 16921 ft | 402 kts | 11° |
| 2026-04-23 17:59 | 15.55326 | -23.33187 | 17576 ft | 404 kts | 11° |
| 2026-04-23 17:59 | 15.58085 | -23.32622 | 18219 ft | 406 kts | 13° |
| 2026-04-23 18:00 | 15.60807 | -23.31905 | 18839 ft | 408 kts | 16° |
| 2026-04-23 18:00 | 15.63550 | -23.31042 | 19447 ft | 410 kts | 17° |
| 2026-04-23 18:00 | 15.66240 | -23.30168 | 20027 ft | 412 kts | 17° |
| 2026-04-23 18:00 | 15.68965 | -23.29278 | 20583 ft | 415 kts | 17° |
| 2026-04-23 18:01 | 15.71718 | -23.28379 | 21121 ft | 417 kts | 17° |
| 2026-04-23 18:01 | 15.74504 | -23.27471 | 21641 ft | 420 kts | 16° |
| 2026-04-23 18:01 | 15.77274 | -23.26569 | 22136 ft | 422 kts | 16° |
| 2026-04-23 18:01 | 15.80071 | -23.25659 | 22614 ft | 425 kts | 16° |
| 2026-04-23 18:02 | 15.82835 | -23.24760 | 23068 ft | 427 kts | 15° |
| 2026-04-23 18:02 | 15.85692 | -23.23830 | 23518 ft | 430 kts | 15° |
| 2026-04-23 18:02 | 15.88534 | -23.22905 | 23948 ft | 433 kts | 15° |
| 2026-04-23 18:02 | 15.91426 | -23.21964 | 24371 ft | 435 kts | 15° |
| 2026-04-23 18:03 | 15.94313 | -23.21024 | 24791 ft | 438 kts | 15° |
| 2026-04-23 18:03 | 15.97192 | -23.20086 | 25336 ft | 436 kts | 14° |
| 2026-04-23 18:03 | 16.00076 | -23.19145 | 25904 ft | 434 kts | 14° |
| 2026-04-23 18:03 | 16.02914 | -23.18219 | 26398 ft | 433 kts | 14° |
| 2026-04-23 18:04 | 16.05792 | -23.17282 | 26845 ft | 433 kts | 14° |
| 2026-04-23 18:04 | 16.08644 | -23.16352 | 27266 ft | 433 kts | 13° |
| 2026-04-23 18:04 | 16.11487 | -23.15426 | 27677 ft | 432 kts | 13° |
| 2026-04-23 18:04 | 16.14356 | -23.14495 | 28083 ft | 432 kts | 13° |
| 2026-04-23 18:05 | 16.17212 | -23.13567 | 28465 ft | 432 kts | 13° |
| 2026-04-23 18:05 | 16.20099 | -23.12627 | 28831 ft | 432 kts | 13° |
| 2026-04-23 18:05 | 16.22931 | -23.11705 | 29173 ft | 433 kts | 12° |
| 2026-04-23 18:05 | 16.25793 | -23.10771 | 29504 ft | 433 kts | 12° |
| 2026-04-23 18:06 | 16.28644 | -23.09841 | 29825 ft | 433 kts | 12° |
| 2026-04-23 18:06 | 16.31532 | -23.08897 | 30132 ft | 433 kts | 12° |
| 2026-04-23 18:06 | 16.34378 | -23.07968 | 30420 ft | 433 kts | 12° |
| 2026-04-23 18:06 | 16.37270 | -23.07023 | 30700 ft | 434 kts | 12° |
| 2026-04-23 18:07 | 16.40142 | -23.06083 | 30965 ft | 434 kts | 12° |
| 2026-04-23 18:07 | 16.42994 | -23.05150 | 31221 ft | 434 kts | 12° |
| 2026-04-23 18:07 | 16.45869 | -23.04209 | 31470 ft | 435 kts | 11° |
| 2026-04-23 18:07 | 16.48743 | -23.03268 | 31711 ft | 435 kts | 11° |
| 2026-04-23 18:08 | 16.50641 | -23.02647 | 31868 ft | 435 kts | 11° |
| 2026-04-23 18:08 | 16.54505 | -23.01380 | 32183 ft | 436 kts | 11° |
| 2026-04-23 18:08 | 16.57371 | -23.00441 | 32403 ft | 436 kts | 11° |
| 2026-04-23 18:08 | 16.60250 | -22.99497 | 32621 ft | 437 kts | 11° |
| 2026-04-23 18:09 | 16.63128 | -22.98552 | 32831 ft | 437 kts | 11° |
| 2026-04-23 18:09 | 16.66050 | -22.97593 | 33035 ft | 437 kts | 11° |
| 2026-04-23 18:09 | 16.68942 | -22.96630 | 33220 ft | 439 kts | 12° |
| 2026-04-23 18:09 | 16.71806 | -22.95534 | 33373 ft | 443 kts | 15° |
| 2026-04-23 18:10 | 16.74618 | -22.94271 | 33514 ft | 448 kts | 18° |
| 2026-04-23 18:10 | 16.77423 | -22.92806 | 33657 ft | 452 kts | 21° |
| 2026-04-23 18:10 | 16.80177 | -22.91184 | 33800 ft | 455 kts | 23° |
| 2026-04-23 18:10 | 16.82877 | -22.89543 | 33943 ft | 457 kts | 23° |
| 2026-04-23 18:11 | 16.85630 | -22.87861 | 34078 ft | 458 kts | 23° |
| 2026-04-23 18:11 | 16.88384 | -22.86181 | 34221 ft | 460 kts | 23° |
| 2026-04-23 18:11 | 16.91142 | -22.84500 | 34381 ft | 460 kts | 23° |
| 2026-04-23 18:11 | 16.93879 | -22.82833 | 34546 ft | 460 kts | 23° |
| 2026-04-23 18:12 | 16.96663 | -22.81140 | 34705 ft | 461 kts | 22° |
| 2026-04-23 18:12 | 16.99396 | -22.79477 | 34865 ft | 461 kts | 22° |
| 2026-04-23 18:12 | 17.02171 | -22.77787 | 34984 ft | 461 kts | 22° |
| 2026-04-23 18:13 | 17.07673 | -22.74437 | 34996 ft | 458 kts | 21° |
| 2026-04-23 18:13 | 17.13138 | -22.71115 | 34997 ft | 454 kts | 21° |
| 2026-04-23 18:14 | 17.18564 | -22.67831 | 34997 ft | 453 kts | 21° |
| 2026-04-23 18:14 | 17.23984 | -22.64540 | 34997 ft | 453 kts | 21° |
| 2026-04-23 18:15 | 17.29424 | -22.61228 | 34997 ft | 453 kts | 21° |
| 2026-04-23 18:15 | 17.34884 | -22.57899 | 34997 ft | 453 kts | 21° |
| 2026-04-23 18:16 | 17.40293 | -22.54598 | 34997 ft | 453 kts | 21° |
| 2026-04-23 18:16 | 17.45720 | -22.51283 | 34997 ft | 453 kts | 21° |
| 2026-04-23 18:17 | 17.53893 | -22.46287 | 34997 ft | 453 kts | 21° |
| 2026-04-23 18:17 | 17.59311 | -22.42971 | 34997 ft | 453 kts | 21° |
| 2026-04-23 18:18 | 17.64712 | -22.39664 | 34997 ft | 453 kts | 21° |
| 2026-04-23 18:18 | 17.70132 | -22.36343 | 34997 ft | 453 kts | 21° |
| 2026-04-23 18:19 | 17.75571 | -22.32995 | 34996 ft | 454 kts | 21° |
| 2026-04-23 18:19 | 17.80987 | -22.29642 | 34997 ft | 454 kts | 21° |
| 2026-04-23 18:20 | 17.86396 | -22.26307 | 34997 ft | 454 kts | 21° |
| 2026-04-23 18:20 | 17.91821 | -22.22968 | 34997 ft | 453 kts | 21° |
| 2026-04-23 18:21 | 17.97253 | -22.19627 | 34997 ft | 453 kts | 21° |
| 2026-04-23 18:21 | 18.02624 | -22.16322 | 34997 ft | 453 kts | 21° |
| 2026-04-23 18:22 | 18.08068 | -22.12969 | 34997 ft | 453 kts | 21° |
| 2026-04-23 18:22 | 18.13494 | -22.09631 | 34997 ft | 453 kts | 21° |
| 2026-04-23 18:23 | 18.21612 | -22.04639 | 34997 ft | 453 kts | 21° |
| 2026-04-23 18:24 | 18.29751 | -21.99618 | 34997 ft | 453 kts | 21° |
| 2026-04-23 18:25 | 18.37858 | -21.94607 | 34997 ft | 453 kts | 21° |
| 2026-04-23 18:25 | 18.43282 | -21.91251 | 34997 ft | 453 kts | 21° |
| 2026-04-23 18:26 | 18.48697 | -21.87898 | 34997 ft | 453 kts | 21° |
| 2026-04-23 18:26 | 18.54133 | -21.84530 | 34997 ft | 453 kts | 21° |
| 2026-04-23 18:27 | 18.59544 | -21.81175 | 34997 ft | 453 kts | 21° |
| 2026-04-23 18:27 | 18.64961 | -21.77813 | 34997 ft | 453 kts | 21° |
| 2026-04-23 18:28 | 18.70368 | -21.74455 | 34997 ft | 453 kts | 21° |
| 2026-04-23 18:28 | 18.75792 | -21.71084 | 34997 ft | 453 kts | 21° |
| 2026-04-23 18:29 | 18.81204 | -21.67718 | 34997 ft | 453 kts | 21° |
| 2026-04-23 18:29 | 18.86581 | -21.64371 | 34997 ft | 453 kts | 21° |
| 2026-04-23 18:30 | 18.92001 | -21.61001 | 34997 ft | 452 kts | 22° |
| 2026-04-23 18:30 | 18.97412 | -21.57637 | 34997 ft | 451 kts | 23° |
| 2026-04-23 18:31 | 19.02749 | -21.54312 | 34997 ft | 450 kts | 25° |
| 2026-04-23 18:31 | 19.08141 | -21.50939 | 34997 ft | 449 kts | 25° |
| 2026-04-23 18:32 | 19.13471 | -21.47606 | 34997 ft | 449 kts | 25° |
| 2026-04-23 18:32 | 19.18835 | -21.44262 | 34997 ft | 449 kts | 25° |
| 2026-04-23 18:33 | 19.24216 | -21.40899 | 34997 ft | 449 kts | 25° |
| 2026-04-23 18:33 | 19.29548 | -21.37561 | 34997 ft | 449 kts | 25° |
| 2026-04-23 18:34 | 19.34930 | -21.34186 | 34994 ft | 449 kts | 25° |
| 2026-04-23 18:34 | 19.40261 | -21.30812 | 34996 ft | 449 kts | 25° |
| 2026-04-23 18:35 | 19.45618 | -21.27431 | 34997 ft | 449 kts | 25° |
| 2026-04-23 18:35 | 19.50988 | -21.24051 | 34997 ft | 449 kts | 25° |
| 2026-04-23 18:36 | 19.56337 | -21.20687 | 34997 ft | 449 kts | 25° |
| 2026-04-23 18:36 | 19.61697 | -21.17314 | 34997 ft | 449 kts | 25° |
| 2026-04-23 18:37 | 19.67058 | -21.13938 | 34997 ft | 449 kts | 25° |
| 2026-04-23 18:37 | 19.72416 | -21.10562 | 34997 ft | 449 kts | 25° |
| 2026-04-23 18:38 | 19.77705 | -21.07225 | 34997 ft | 450 kts | 25° |
| 2026-04-23 18:38 | 19.83084 | -21.03830 | 34997 ft | 451 kts | 25° |
| 2026-04-23 18:39 | 19.88456 | -21.00437 | 34997 ft | 451 kts | 25° |
| 2026-04-23 18:39 | 19.93822 | -20.97044 | 34997 ft | 452 kts | 25° |
| 2026-04-23 18:40 | 19.99249 | -20.93612 | 34997 ft | 453 kts | 25° |
| 2026-04-23 18:40 | 20.04649 | -20.90193 | 34996 ft | 454 kts | 25° |
| 2026-04-23 18:41 | 20.10045 | -20.86774 | 34992 ft | 455 kts | 24° |
| 2026-04-23 18:41 | 20.15486 | -20.83337 | 34985 ft | 455 kts | 24° |
| 2026-04-23 18:42 | 20.20917 | -20.79900 | 34978 ft | 455 kts | 24° |
| 2026-04-23 18:42 | 20.26318 | -20.76471 | 34974 ft | 455 kts | 24° |
| 2026-04-23 18:43 | 20.31725 | -20.73032 | 34972 ft | 455 kts | 25° |
| 2026-04-23 18:43 | 20.37151 | -20.69578 | 34972 ft | 455 kts | 25° |
| 2026-04-23 18:44 | 20.42553 | -20.66134 | 34972 ft | 455 kts | 25° |
| 2026-04-23 18:44 | 20.47988 | -20.62662 | 34972 ft | 455 kts | 25° |
| 2026-04-23 18:45 | 20.53396 | -20.59205 | 34972 ft | 455 kts | 25° |
| 2026-04-23 18:45 | 20.58791 | -20.55754 | 34972 ft | 455 kts | 25° |
| 2026-04-23 18:46 | 20.64215 | -20.52280 | 34972 ft | 455 kts | 25° |
| 2026-04-23 18:46 | 20.69625 | -20.48813 | 34972 ft | 455 kts | 25° |
| 2026-04-23 18:47 | 20.75029 | -20.45346 | 34972 ft | 455 kts | 25° |
| 2026-04-23 18:47 | 20.80437 | -20.41875 | 34971 ft | 457 kts | 25° |
| 2026-04-23 18:48 | 20.85869 | -20.38384 | 34972 ft | 457 kts | 25° |
| 2026-04-23 18:48 | 20.91289 | -20.34898 | 34972 ft | 457 kts | 25° |
| 2026-04-23 18:49 | 20.96707 | -20.31384 | 34973 ft | 457 kts | 25° |
| 2026-04-23 18:49 | 21.02119 | -20.27876 | 34974 ft | 449 kts | 25° |
| 2026-04-23 18:50 | 21.06493 | -20.25049 | 34974 ft | 441 kts | 26° |
| 2026-04-23 18:50 | 21.12542 | -20.21153 | 34973 ft | 432 kts | 26° |
| 2026-04-23 18:51 | 21.17680 | -20.17846 | 34972 ft | 431 kts | 26° |
| 2026-04-23 18:51 | 21.22818 | -20.14531 | 34972 ft | 431 kts | 26° |
| 2026-04-23 18:52 | 21.27923 | -20.11230 | 34972 ft | 431 kts | 26° |
| 2026-04-23 18:52 | 21.33062 | -20.07904 | 34972 ft | 431 kts | 26° |
| 2026-04-23 18:53 | 21.38172 | -20.04593 | 34972 ft | 431 kts | 26° |
| 2026-04-23 18:53 | 21.43266 | -20.01290 | 34972 ft | 431 kts | 26° |
| 2026-04-23 18:54 | 21.48404 | -19.97955 | 34972 ft | 431 kts | 26° |
| 2026-04-23 18:54 | 21.53505 | -19.94642 | 34972 ft | 431 kts | 26° |
| 2026-04-23 18:55 | 21.58621 | -19.91316 | 34972 ft | 431 kts | 26° |
| 2026-04-23 18:55 | 21.63739 | -19.87986 | 34972 ft | 431 kts | 26° |
| 2026-04-23 18:56 | 21.67977 | -19.85226 | 34972 ft | 431 kts | 26° |
| 2026-04-23 18:56 | 21.73961 | -19.81327 | 34972 ft | 431 kts | 26° |
| 2026-04-23 18:57 | 21.79080 | -19.77988 | 34972 ft | 431 kts | 26° |
| 2026-04-23 18:57 | 21.84184 | -19.74656 | 34972 ft | 431 kts | 26° |
| 2026-04-23 18:58 | 21.89292 | -19.71319 | 34972 ft | 431 kts | 26° |
| 2026-04-23 18:58 | 21.94395 | -19.67982 | 34972 ft | 431 kts | 26° |
| 2026-04-23 18:59 | 21.99501 | -19.64640 | 34972 ft | 431 kts | 26° |
| 2026-04-23 18:59 | 22.04620 | -19.61287 | 34972 ft | 431 kts | 26° |
| 2026-04-23 19:00 | 22.09716 | -19.57946 | 34972 ft | 431 kts | 26° |
| 2026-04-23 19:00 | 22.14830 | -19.54601 | 34972 ft | 431 kts | 26° |
| 2026-04-23 19:01 | 22.19940 | -19.51256 | 34972 ft | 431 kts | 26° |
| 2026-04-23 19:01 | 22.25037 | -19.47911 | 34972 ft | 431 kts | 26° |
| 2026-04-23 19:02 | 22.29303 | -19.45105 | 34972 ft | 431 kts | 26° |
| 2026-04-23 19:02 | 22.35259 | -19.41184 | 34972 ft | 431 kts | 26° |
| 2026-04-23 19:03 | 22.40353 | -19.37826 | 34972 ft | 431 kts | 26° |
| 2026-04-23 19:03 | 22.45429 | -19.34477 | 34971 ft | 431 kts | 27° |
| 2026-04-23 19:04 | 22.50507 | -19.31095 | 34972 ft | 431 kts | 27° |
| 2026-04-23 19:04 | 22.55630 | -19.27690 | 34972 ft | 431 kts | 27° |
| 2026-04-23 19:05 | 22.60726 | -19.24311 | 34972 ft | 431 kts | 27° |
| 2026-04-23 19:05 | 22.65833 | -19.20927 | 34972 ft | 431 kts | 27° |
| 2026-04-23 19:06 | 22.70903 | -19.17566 | 34971 ft | 432 kts | 27° |
| 2026-04-23 19:06 | 22.76030 | -19.14165 | 34971 ft | 435 kts | 26° |
| 2026-04-23 19:07 | 22.81212 | -19.10725 | 34971 ft | 438 kts | 26° |
| 2026-04-23 19:07 | 22.86396 | -19.07282 | 34971 ft | 441 kts | 26° |
| 2026-04-23 19:08 | 22.91619 | -19.03810 | 34973 ft | 441 kts | 26° |
| 2026-04-23 19:08 | 22.96782 | -19.00375 | 34973 ft | 435 kts | 27° |
| 2026-04-23 19:09 | 23.01879 | -18.96984 | 34973 ft | 430 kts | 27° |
| 2026-04-23 19:09 | 23.06966 | -18.93595 | 34972 ft | 427 kts | 28° |
| 2026-04-23 19:10 | 23.11999 | -18.90234 | 34972 ft | 427 kts | 28° |
| 2026-04-23 19:10 | 23.17080 | -18.86854 | 34972 ft | 427 kts | 28° |
| 2026-04-23 19:11 | 23.22107 | -18.83501 | 34972 ft | 427 kts | 28° |
| 2026-04-23 19:11 | 23.27162 | -18.80121 | 34974 ft | 427 kts | 28° |
| 2026-04-23 19:12 | 23.31366 | -18.77307 | 34979 ft | 427 kts | 28° |
| 2026-04-23 19:12 | 23.37202 | -18.73394 | 34986 ft | 427 kts | 28° |
| 2026-04-23 19:13 | 23.42222 | -18.70026 | 34992 ft | 427 kts | 28° |
| 2026-04-23 19:13 | 23.47285 | -18.66624 | 34995 ft | 427 kts | 28° |
| 2026-04-23 19:14 | 23.52297 | -18.63255 | 34996 ft | 427 kts | 28° |
| 2026-04-23 19:14 | 23.57362 | -18.59848 | 34997 ft | 427 kts | 28° |
| 2026-04-23 19:15 | 23.62377 | -18.56470 | 34997 ft | 427 kts | 28° |
| 2026-04-23 19:15 | 23.67434 | -18.53062 | 34997 ft | 427 kts | 28° |
| 2026-04-23 19:16 | 23.72473 | -18.49662 | 34997 ft | 427 kts | 28° |
| 2026-04-23 19:16 | 23.77500 | -18.46267 | 34997 ft | 427 kts | 28° |
| 2026-04-23 19:17 | 23.85037 | -18.41172 | 34997 ft | 427 kts | 28° |
| 2026-04-23 19:17 | 23.90068 | -18.37767 | 34997 ft | 427 kts | 28° |
| 2026-04-23 19:18 | 23.95116 | -18.34345 | 34996 ft | 427 kts | 28° |
| 2026-04-23 19:18 | 24.00120 | -18.30923 | 34997 ft | 427 kts | 28° |
| 2026-04-23 19:19 | 24.07656 | -18.25784 | 34997 ft | 427 kts | 28° |
| 2026-04-23 19:20 | 24.15231 | -18.20646 | 34997 ft | 427 kts | 28° |
| 2026-04-23 19:20 | 24.20250 | -18.17240 | 34997 ft | 427 kts | 28° |
| 2026-04-23 19:21 | 24.27787 | -18.12109 | 34997 ft | 427 kts | 28° |
| 2026-04-23 19:22 | 24.32850 | -18.08656 | 34997 ft | 427 kts | 28° |
| 2026-04-23 19:22 | 24.40387 | -18.03508 | 34997 ft | 427 kts | 28° |
| 2026-04-23 19:23 | 24.45384 | -18.00091 | 34997 ft | 427 kts | 28° |
| 2026-04-23 19:24 | 24.52916 | -17.94934 | 34997 ft | 427 kts | 28° |
| 2026-04-23 19:24 | 24.60455 | -17.89765 | 34997 ft | 427 kts | 28° |
| 2026-04-23 19:25 | 24.70634 | -17.82776 | 34998 ft | 440 kts | 28° |
| 2026-04-23 19:26 | 24.78439 | -17.77406 | 34997 ft | 444 kts | 28° |
| 2026-04-23 19:27 | 24.91534 | -17.68378 | 34997 ft | 444 kts | 28° |
| 2026-04-23 19:28 | 25.01943 | -17.61188 | 34998 ft | 439 kts | 29° |
| 2026-04-23 19:29 | 25.09585 | -17.55892 | 34998 ft | 431 kts | 30° |
| 2026-04-23 19:30 | 25.17108 | -17.50690 | 34997 ft | 427 kts | 30° |
| 2026-04-23 19:31 | 25.24664 | -17.45444 | 34997 ft | 427 kts | 31° |
| 2026-04-23 19:31 | 25.29669 | -17.41961 | 34997 ft | 427 kts | 31° |
| 2026-04-23 19:32 | 25.34686 | -17.38466 | 34997 ft | 427 kts | 31° |
| 2026-04-23 19:32 | 25.39662 | -17.34996 | 34997 ft | 427 kts | 31° |
| 2026-04-23 19:33 | 25.44646 | -17.31491 | 34997 ft | 427 kts | 31° |
| 2026-04-23 19:33 | 25.52164 | -17.26211 | 35005 ft | 427 kts | 31° |
| 2026-04-23 19:34 | 25.57165 | -17.22707 | 35016 ft | 427 kts | 31° |
| 2026-04-23 19:35 | 25.64687 | -17.17435 | 35029 ft | 427 kts | 31° |
| 2026-04-23 19:35 | 25.69688 | -17.13926 | 35033 ft | 427 kts | 31° |
| 2026-04-23 19:36 | 25.74701 | -17.10406 | 35038 ft | 427 kts | 31° |
| 2026-04-23 19:36 | 25.79674 | -17.06910 | 35044 ft | 427 kts | 31° |
| 2026-04-23 19:37 | 25.84674 | -17.03392 | 35048 ft | 427 kts | 31° |
| 2026-04-23 19:37 | 25.89714 | -16.99846 | 35049 ft | 431 kts | 31° |
| 2026-04-23 19:38 | 25.94765 | -16.96288 | 35049 ft | 436 kts | 32° |
| 2026-04-23 19:38 | 25.99913 | -16.92655 | 35050 ft | 441 kts | 32° |
| 2026-04-23 19:39 | 26.05105 | -16.88986 | 35050 ft | 446 kts | 32° |
| 2026-04-23 19:39 | 26.10265 | -16.85337 | 35050 ft | 451 kts | 32° |